createdAt,value
2023-10-22T00:01:25.212Z,58.82
2023-10-22T00:03:56.334Z,58.82
2023-10-22T00:06:27.705Z,59.01
2023-10-22T00:08:58.774Z,59.10
2023-10-22T00:11:29.957Z,59.10
2023-10-22T00:14:01.108Z,59.06
2023-10-22T00:16:32.338Z,59.15
2023-10-22T00:19:03.626Z,59.27
2023-10-22T00:21:34.515Z,59.22
2023-10-22T00:24:05.744Z,59.06
2023-10-22T00:26:37.014Z,59.04
2023-10-22T00:29:08.202Z,59.22
2023-10-22T00:31:39.917Z,59.23
2023-10-22T00:34:11.579Z,59.15
2023-10-22T00:36:43.449Z,58.96
2023-10-22T00:39:15.284Z,58.97
2023-10-22T00:41:47.279Z,59.08
2023-10-22T00:44:18.343Z,59.20
2023-10-22T00:46:51.201Z,59.21
2023-10-22T00:49:22.946Z,59.20
2023-10-22T00:51:54.525Z,59.28
2023-10-22T00:54:27.619Z,59.35
2023-10-22T00:57:00.388Z,59.29
2023-10-22T00:59:31.641Z,59.43
2023-10-22T01:02:02.726Z,59.48
2023-10-22T01:04:35.050Z,59.37
2023-10-22T01:07:08.005Z,59.38
2023-10-22T01:09:39.703Z,59.41
2023-10-22T01:12:11.562Z,59.44
2023-10-22T01:14:42.580Z,59.42
2023-10-22T01:17:31.558Z,59.40
2023-10-22T01:20:03.294Z,59.46
2023-10-22T01:22:36.656Z,59.37
2023-10-22T01:25:09.267Z,59.42
2023-10-22T01:27:40.847Z,59.42
2023-10-22T01:30:13.613Z,59.45
2023-10-22T01:32:44.851Z,59.59
2023-10-22T01:35:15.826Z,59.64
2023-10-22T01:37:47.125Z,59.50
2023-10-22T01:40:18.389Z,59.44
2023-10-22T01:42:49.893Z,59.38
2023-10-22T01:45:21.605Z,59.52
2023-10-22T01:47:53.145Z,59.47
2023-10-22T01:50:24.731Z,59.57
2023-10-22T01:52:56.200Z,59.69
2023-10-22T01:55:27.609Z,59.66
2023-10-22T01:57:59.641Z,59.43
2023-10-22T02:00:31.523Z,59.44
2023-10-22T02:03:05.675Z,59.27
2023-10-22T02:05:37.988Z,59.28
2023-10-22T02:08:09.317Z,59.30
2023-10-22T02:10:40.396Z,59.27
2023-10-22T02:13:11.486Z,59.26
2023-10-22T02:15:42.518Z,59.30
2023-10-22T02:18:14.017Z,59.29
2023-10-22T02:20:57.326Z,59.19
2023-10-22T02:23:29.527Z,59.22
2023-10-22T02:26:00.527Z,58.95
2023-10-22T02:28:31.901Z,58.87
2023-10-22T02:31:05.815Z,58.95
2023-10-22T02:33:38.186Z,58.97
2023-10-22T02:36:11.728Z,58.83
2023-10-22T02:38:43.145Z,58.57
2023-10-22T02:41:14.648Z,58.67
2023-10-22T02:43:45.882Z,58.74
2023-10-22T02:46:18.428Z,58.80
2023-10-22T02:48:49.495Z,58.78
2023-10-22T02:51:21.336Z,58.81
2023-10-22T02:53:52.927Z,58.99
2023-10-22T02:56:24.729Z,58.94
2023-10-22T02:58:55.521Z,59.19
2023-10-22T03:01:28.369Z,59.16
2023-10-22T03:03:59.639Z,59.18
2023-10-22T03:06:30.797Z,59.10
2023-10-22T03:09:02.133Z,59.07
2023-10-22T03:11:33.414Z,59.06
2023-10-22T03:14:06.440Z,59.09
2023-10-22T03:16:37.758Z,59.14
2023-10-22T03:19:09.771Z,59.12
2023-10-22T03:21:42.810Z,59.08
2023-10-22T03:24:16.675Z,58.96
2023-10-22T03:26:48.113Z,59.24
2023-10-22T03:29:19.231Z,59.23
2023-10-22T03:31:50.611Z,59.24
2023-10-22T03:34:24.045Z,59.35
2023-10-22T03:36:55.131Z,59.26
2023-10-22T03:39:26.610Z,59.36
2023-10-22T03:41:57.950Z,59.32
2023-10-22T03:44:30.429Z,59.26
2023-10-22T03:47:01.871Z,59.10
2023-10-22T03:49:36.564Z,59.08
2023-10-22T03:52:08.620Z,59.02
2023-10-22T03:54:39.824Z,58.98
2023-10-22T03:57:11.031Z,59.06
2023-10-22T03:59:42.202Z,59.03
2023-10-22T04:02:13.358Z,59.06
2023-10-22T04:04:44.736Z,59.02
2023-10-22T04:07:15.938Z,58.96
2023-10-22T04:09:48.361Z,58.82
2023-10-22T04:12:19.695Z,58.78
2023-10-22T04:14:50.980Z,58.47
2023-10-22T04:17:22.127Z,58.26
2023-10-22T04:19:53.416Z,58.21
2023-10-22T04:22:24.392Z,58.05
2023-10-22T04:24:55.842Z,58.18
2023-10-22T04:27:27.160Z,58.22
2023-10-22T04:29:58.320Z,58.43
2023-10-22T04:32:29.935Z,58.51
2023-10-22T04:35:01.521Z,58.68
2023-10-22T04:37:32.453Z,58.58
2023-10-22T04:40:04.692Z,58.52
2023-10-22T04:42:35.722Z,58.48
2023-10-22T04:45:08.408Z,58.51
2023-10-22T04:47:39.812Z,58.52
2023-10-22T04:50:12.457Z,58.64
2023-10-22T04:52:43.428Z,58.72
2023-10-22T04:55:15.159Z,58.47
2023-10-22T04:57:46.337Z,58.40
2023-10-22T05:00:19.635Z,58.34
2023-10-22T05:02:51.300Z,58.23
2023-10-22T05:05:23.497Z,58.35
2023-10-22T05:07:54.595Z,58.25
2023-10-22T05:10:25.404Z,58.33
2023-10-22T05:12:56.282Z,58.21
2023-10-22T05:15:27.603Z,58.13
2023-10-22T05:17:59.061Z,58.12
2023-10-22T05:20:32.991Z,58.25
2023-10-22T05:23:05.746Z,58.18
2023-10-22T05:25:37.998Z,58.18
2023-10-22T05:28:09.244Z,58.12
2023-10-22T05:30:40.668Z,58.20
2023-10-22T05:33:11.864Z,58.22
2023-10-22T05:35:43.127Z,58.09
2023-10-22T05:38:14.395Z,58.17
2023-10-22T05:40:45.252Z,58.07
2023-10-22T05:43:16.504Z,58.10
2023-10-22T05:45:48.690Z,57.96
2023-10-22T05:48:19.853Z,58.02
2023-10-22T05:50:52.031Z,58.04
2023-10-22T05:53:23.130Z,58.75
2023-10-22T05:56:00.589Z,58.46
2023-10-22T05:58:31.821Z,58.17
2023-10-22T06:01:03.098Z,57.90
2023-10-22T06:03:34.932Z,57.75
2023-10-22T06:06:06.513Z,57.83
2023-10-22T06:08:37.880Z,57.40
2023-10-22T06:11:09.182Z,57.12
2023-10-22T06:13:40.602Z,56.97
2023-10-22T06:16:12.340Z,56.80
2023-10-22T06:18:43.644Z,56.48
2023-10-22T06:21:15.788Z,56.43
2023-10-22T06:23:47.610Z,56.24
2023-10-22T06:26:18.946Z,56.23
2023-10-22T06:28:51.235Z,56.13
2023-10-22T06:31:22.314Z,56.07
2023-10-22T06:33:53.655Z,55.93
2023-10-22T06:36:26.574Z,55.99
2023-10-22T06:38:57.717Z,55.97
2023-10-22T06:41:29.506Z,55.88
2023-10-22T06:44:00.427Z,55.82
2023-10-22T06:46:31.662Z,55.83
2023-10-22T06:49:03.245Z,55.81
2023-10-22T06:51:34.669Z,55.72
2023-10-22T06:54:07.003Z,55.74
2023-10-22T06:56:38.221Z,55.69
2023-10-22T06:59:09.832Z,55.80
2023-10-22T07:01:41.039Z,55.93
2023-10-22T07:04:13.903Z,55.78
2023-10-22T07:06:45.203Z,55.98
2023-10-22T07:09:16.235Z,55.85
2023-10-22T07:11:47.875Z,55.90
2023-10-22T07:14:19.064Z,55.85
2023-10-22T07:16:50.414Z,55.75
2023-10-22T07:19:21.493Z,55.65
2023-10-22T07:21:52.638Z,55.50
2023-10-22T07:24:24.229Z,55.32
2023-10-22T07:26:55.814Z,55.05
2023-10-22T07:29:27.399Z,55.25
2023-10-22T07:31:58.619Z,55.23
2023-10-22T07:34:31.372Z,55.11
2023-10-22T07:37:02.429Z,54.96
2023-10-22T07:39:34.131Z,55.00
2023-10-22T07:42:05.319Z,54.98
2023-10-22T07:44:37.689Z,54.93
2023-10-22T07:47:09.497Z,54.93
2023-10-22T07:49:40.644Z,54.98
2023-10-22T07:52:11.996Z,54.99
2023-10-22T07:54:42.906Z,54.87
2023-10-22T07:57:14.120Z,54.65
2023-10-22T07:59:45.068Z,54.69
2023-10-22T08:02:16.185Z,54.57
2023-10-22T08:04:47.338Z,54.33
2023-10-22T08:07:20.011Z,54.36
2023-10-22T08:09:51.301Z,54.21
2023-10-22T08:12:22.384Z,53.97
2023-10-22T08:14:53.987Z,53.93
2023-10-22T08:17:25.196Z,53.74
2023-10-22T08:19:56.003Z,53.80
2023-10-22T08:22:26.833Z,53.64
2023-10-22T08:24:58.051Z,53.52
2023-10-22T08:27:29.167Z,53.52
2023-10-22T08:30:00.415Z,53.38
2023-10-22T08:32:31.467Z,53.18
2023-10-22T08:35:06.124Z,53.26
2023-10-22T08:37:37.630Z,52.93
2023-10-22T08:40:11.283Z,52.45
2023-10-22T08:42:42.410Z,52.30
2023-10-22T08:45:13.828Z,51.53
2023-10-22T08:47:44.860Z,51.03
2023-10-22T08:50:17.912Z,50.48
2023-10-22T08:52:49.770Z,50.12
2023-10-22T08:55:22.184Z,49.52
2023-10-22T08:57:53.666Z,49.24
2023-10-22T09:00:29.410Z,48.85
2023-10-22T09:03:02.824Z,48.30
2023-10-22T09:05:33.882Z,47.64
2023-10-22T09:08:05.313Z,47.90
2023-10-22T09:10:37.791Z,48.16
2023-10-22T09:13:15.509Z,48.10
2023-10-22T09:15:48.543Z,47.54
2023-10-22T09:18:20.829Z,47.52
2023-10-22T09:20:51.976Z,47.57
2023-10-22T09:23:24.001Z,47.51
2023-10-22T09:25:57.761Z,47.85
2023-10-22T09:28:30.221Z,47.62
2023-10-22T09:31:02.801Z,47.59
2023-10-22T09:33:39.020Z,47.74
2023-10-22T09:36:12.147Z,47.59
2023-10-22T09:38:48.268Z,47.42
2023-10-22T09:41:29.665Z,47.73
2023-10-22T09:44:02.626Z,47.69
2023-10-22T09:46:35.289Z,47.87
2023-10-22T09:49:08.395Z,47.63
2023-10-22T09:51:40.374Z,47.61
2023-10-22T09:54:11.902Z,47.76
2023-10-22T09:56:53.208Z,47.65
2023-10-22T09:59:25.074Z,47.18
2023-10-22T10:01:56.257Z,47.33
2023-10-22T10:04:28.373Z,47.49
2023-10-22T10:07:03.277Z,47.27
2023-10-22T10:09:36.246Z,47.24
2023-10-22T10:12:10.139Z,47.07
2023-10-22T10:14:49.046Z,47.35
2023-10-22T10:17:21.919Z,47.28
2023-10-22T10:19:53.424Z,48.03
2023-10-22T10:22:43.756Z,48.28
2023-10-22T10:25:32.084Z,47.84
2023-10-22T10:28:07.807Z,47.59
2023-10-22T10:30:40.681Z,47.57
2023-10-22T10:33:17.059Z,47.63
2023-10-22T10:35:50.873Z,47.57
2023-10-22T10:38:30.041Z,47.55
2023-10-22T10:41:00.882Z,47.33
2023-10-22T10:43:59.311Z,47.43
2023-10-22T10:46:31.191Z,47.38
2023-10-22T10:49:02.257Z,47.43
2023-10-22T10:51:33.391Z,47.36
2023-10-22T10:54:19.902Z,47.19
2023-10-22T10:56:53.346Z,47.27
2023-10-22T10:59:35.625Z,47.33
2023-10-22T11:02:13.307Z,47.43
2023-10-22T11:04:48.235Z,47.28
2023-10-22T11:07:27.370Z,47.26
2023-10-22T11:09:59.275Z,47.20
2023-10-22T11:12:30.519Z,47.05
2023-10-22T11:15:01.705Z,47.11
2023-10-22T11:17:32.999Z,47.46
2023-10-22T11:20:05.720Z,47.10
2023-10-22T11:22:37.350Z,46.96
2023-10-22T11:25:11.315Z,47.28
2023-10-22T11:27:43.160Z,47.02
2023-10-22T11:30:34.428Z,47.11
2023-10-22T11:33:05.762Z,47.04
2023-10-22T11:35:38.850Z,46.89
2023-10-22T11:38:09.891Z,46.75
2023-10-22T11:40:42.691Z,46.77
2023-10-22T11:43:20.190Z,46.77
2023-10-22T11:45:55.702Z,46.52
2023-10-22T11:48:29.060Z,46.46
2023-10-22T11:51:01.932Z,46.33
2023-10-22T11:53:43.774Z,46.70
2023-10-22T11:56:14.713Z,46.60
2023-10-22T11:58:52.437Z,46.69
2023-10-22T12:01:23.634Z,47.10
2023-10-22T12:03:55.193Z,47.12
2023-10-22T12:06:26.546Z,47.10
2023-10-22T12:08:57.486Z,47.26
2023-10-22T12:11:28.484Z,47.13
2023-10-22T12:13:59.544Z,47.35
2023-10-22T12:16:30.955Z,47.50
2023-10-22T12:19:02.461Z,47.70
2023-10-22T12:21:33.366Z,47.71
2023-10-22T12:24:12.574Z,47.86
2023-10-22T12:26:51.634Z,47.83
2023-10-22T12:29:23.792Z,47.81
2023-10-22T12:31:54.930Z,47.85
2023-10-22T12:34:26.542Z,47.97
2023-10-22T12:36:57.360Z,47.97
2023-10-22T12:39:28.516Z,47.88
2023-10-22T12:41:59.514Z,47.97
2023-10-22T12:44:30.787Z,47.91
2023-10-22T12:47:01.835Z,47.80
2023-10-22T12:49:32.872Z,47.73
2023-10-22T12:52:03.978Z,47.69
2023-10-22T12:54:34.831Z,47.54
2023-10-22T12:57:06.359Z,47.65
2023-10-22T12:59:37.478Z,47.77
2023-10-22T13:02:09.648Z,47.87
2023-10-22T13:04:41.841Z,47.81
2023-10-22T13:07:12.959Z,47.88
2023-10-22T13:09:43.899Z,47.85
2023-10-22T13:12:14.800Z,47.95
2023-10-22T13:14:45.765Z,48.03
2023-10-22T13:17:16.934Z,48.10
2023-10-22T13:19:47.989Z,49.04
2023-10-22T13:22:18.981Z,49.76
2023-10-22T13:24:50.590Z,50.26
2023-10-22T13:27:21.471Z,51.06
2023-10-22T13:29:52.482Z,51.17
2023-10-22T13:32:23.334Z,51.68
2023-10-22T13:34:55.015Z,52.06
2023-10-22T13:37:26.394Z,52.16
2023-10-22T13:39:57.209Z,53.00
2023-10-22T13:42:28.317Z,53.10
2023-10-22T13:44:59.348Z,52.74
2023-10-22T13:47:30.532Z,52.59
2023-10-22T13:50:01.544Z,52.93
2023-10-22T13:52:32.595Z,52.99
2023-10-22T13:55:03.531Z,53.23
2023-10-22T13:57:34.547Z,53.14
2023-10-22T14:00:11.083Z,52.74
2023-10-22T14:02:42.362Z,52.84
2023-10-22T14:05:14.016Z,52.99
2023-10-22T14:07:46.085Z,52.90
2023-10-22T14:10:17.953Z,52.95
2023-10-22T14:12:48.777Z,53.06
2023-10-22T14:15:22.095Z,52.85
2023-10-22T14:17:53.107Z,52.48
2023-10-22T14:20:24.024Z,52.67
2023-10-22T14:22:54.948Z,52.49
2023-10-22T14:25:26.248Z,51.96
2023-10-22T14:27:57.281Z,51.77
2023-10-22T14:30:28.541Z,51.34
2023-10-22T14:32:59.812Z,51.11
2023-10-22T14:35:30.999Z,50.78
2023-10-22T14:38:01.882Z,50.40
2023-10-22T14:40:32.710Z,49.75
2023-10-22T14:43:03.550Z,49.06
2023-10-22T14:45:35.144Z,48.98
2023-10-22T14:48:06.747Z,49.09
2023-10-22T14:50:37.690Z,48.93
2023-10-22T14:53:08.436Z,48.93
2023-10-22T14:55:39.344Z,48.93
2023-10-22T14:58:10.205Z,49.03
2023-10-22T15:00:42.415Z,49.03
2023-10-22T15:03:13.617Z,49.04
2023-10-22T15:05:47.919Z,49.20
2023-10-22T15:08:19.328Z,48.62
2023-10-22T15:10:50.315Z,48.67
2023-10-22T15:13:21.230Z,48.73
2023-10-22T15:15:52.662Z,48.79
2023-10-22T15:18:24.074Z,48.69
2023-10-22T15:20:55.151Z,48.70
2023-10-22T15:23:26.390Z,48.56
2023-10-22T15:25:57.373Z,48.45
2023-10-22T15:28:28.505Z,48.02
2023-10-22T15:30:59.774Z,47.90
2023-10-22T15:33:31.562Z,48.04
2023-10-22T15:36:03.899Z,48.13
2023-10-22T15:38:34.845Z,48.14
2023-10-22T15:41:07.578Z,48.00
2023-10-22T15:43:38.682Z,47.93
2023-10-22T15:46:22.267Z,47.94
2023-10-22T15:48:53.238Z,47.91
2023-10-22T15:51:25.994Z,47.71
2023-10-22T15:53:57.445Z,47.77
2023-10-22T15:56:28.439Z,47.73
2023-10-22T15:58:59.369Z,47.76
2023-10-22T16:01:30.591Z,47.86
2023-10-22T16:04:01.472Z,48.02
2023-10-22T16:06:32.507Z,47.94
2023-10-22T16:09:05.817Z,47.87
2023-10-22T16:11:36.874Z,47.80
2023-10-22T16:14:09.201Z,47.78
2023-10-22T16:16:40.236Z,47.89
2023-10-22T16:19:11.231Z,47.84
2023-10-22T16:21:43.034Z,48.00
2023-10-22T16:24:14.049Z,48.13
2023-10-22T16:26:45.907Z,48.18
2023-10-22T16:29:16.737Z,48.33
2023-10-22T16:31:47.785Z,48.38
2023-10-22T16:34:18.987Z,48.42
2023-10-22T16:36:50.111Z,48.51
2023-10-22T16:39:21.959Z,48.49
2023-10-22T16:41:53.277Z,48.51
2023-10-22T16:44:24.901Z,48.61
2023-10-22T16:46:56.565Z,48.55
2023-10-22T16:49:29.812Z,48.79
2023-10-22T16:52:00.727Z,49.07
2023-10-22T16:54:31.738Z,49.08
2023-10-22T16:57:03.814Z,49.21
2023-10-22T16:59:34.667Z,49.43
2023-10-22T17:02:05.879Z,49.54
2023-10-22T17:04:36.889Z,49.63
2023-10-22T17:07:07.997Z,49.73
2023-10-22T17:09:39.157Z,49.91
2023-10-22T17:12:10.769Z,49.94
2023-10-22T17:14:52.233Z,50.09
2023-10-22T17:17:24.149Z,50.31
2023-10-22T17:19:55.290Z,50.36
2023-10-22T17:22:26.425Z,50.43
2023-10-22T17:24:58.033Z,50.56
2023-10-22T17:27:29.266Z,50.76
2023-10-22T17:30:00.296Z,50.72
2023-10-22T17:32:33.499Z,50.80
2023-10-22T17:35:04.782Z,50.86
2023-10-22T17:37:35.578Z,51.17
2023-10-22T17:40:08.112Z,50.85
2023-10-22T17:42:40.018Z,50.75
2023-10-22T17:45:12.160Z,50.85
2023-10-22T17:47:44.234Z,50.82
2023-10-22T17:50:16.342Z,50.75
2023-10-22T17:52:49.083Z,50.76
2023-10-22T17:55:20.047Z,50.83
2023-10-22T17:57:50.807Z,50.99
2023-10-22T18:00:23.236Z,51.03
2023-10-22T18:02:56.383Z,50.98
2023-10-22T18:05:27.549Z,51.16
2023-10-22T18:07:58.752Z,51.15
2023-10-22T18:10:29.643Z,51.29
2023-10-22T18:13:00.563Z,51.35
2023-10-22T18:15:31.479Z,51.15
2023-10-22T18:18:02.561Z,51.05
2023-10-22T18:20:35.903Z,50.96
2023-10-22T18:23:06.763Z,50.86
2023-10-22T18:25:38.837Z,50.78
2023-10-22T18:28:10.428Z,50.76
2023-10-22T18:30:43.859Z,50.90
2023-10-22T18:33:15.133Z,50.95
2023-10-22T18:35:46.655Z,51.09
2023-10-22T18:38:17.916Z,51.27
2023-10-22T18:40:48.765Z,51.19
2023-10-22T18:43:19.728Z,51.12
2023-10-22T18:45:52.182Z,50.97
2023-10-22T18:48:23.431Z,51.14
2023-10-22T18:51:02.032Z,51.22
2023-10-22T18:53:33.324Z,51.41
2023-10-22T18:56:05.401Z,51.55
2023-10-22T18:58:38.036Z,51.53
2023-10-22T19:01:15.825Z,51.59
2023-10-22T19:03:47.326Z,51.53
2023-10-22T19:06:24.004Z,51.46
2023-10-22T19:08:55.293Z,51.49
2023-10-22T19:11:29.503Z,51.56
2023-10-22T19:14:01.170Z,51.44
2023-10-22T19:16:34.482Z,51.42
2023-10-22T19:19:05.734Z,51.51
2023-10-22T19:21:36.875Z,51.53
2023-10-22T19:24:09.086Z,51.56
2023-10-22T19:26:40.364Z,51.54
2023-10-22T19:29:11.314Z,51.37
2023-10-22T19:31:43.014Z,51.38
2023-10-22T19:34:14.158Z,51.42
2023-10-22T19:36:45.386Z,51.52
2023-10-22T19:39:16.454Z,51.52
2023-10-22T19:41:48.545Z,51.54
2023-10-22T19:44:19.737Z,51.58
2023-10-22T19:46:50.661Z,51.64
2023-10-22T19:49:21.945Z,51.78
2023-10-22T19:51:53.397Z,51.76
2023-10-22T19:54:26.322Z,51.70
2023-10-22T19:57:01.133Z,51.74
2023-10-22T19:59:33.467Z,51.63
2023-10-22T20:02:17.657Z,51.65
2023-10-22T20:04:49.619Z,51.77
2023-10-22T20:07:20.776Z,51.76
2023-10-22T20:09:51.669Z,51.93
2023-10-22T20:12:23.428Z,51.82
2023-10-22T20:14:55.048Z,51.89
2023-10-22T20:17:26.135Z,52.05
2023-10-22T20:19:57.549Z,52.08
2023-10-22T20:22:28.404Z,52.09
2023-10-22T20:24:59.600Z,52.14
2023-10-22T20:27:31.722Z,52.19
2023-10-22T20:30:03.559Z,52.34
2023-10-22T20:32:34.449Z,52.32
2023-10-22T20:35:06.336Z,52.42
2023-10-22T20:37:38.492Z,52.43
2023-10-22T20:40:10.896Z,52.50
2023-10-22T20:42:41.979Z,52.43
2023-10-22T20:45:13.431Z,52.45
2023-10-22T20:47:47.469Z,52.52
2023-10-22T20:50:18.474Z,52.64
2023-10-22T20:52:49.336Z,52.63
2023-10-22T20:55:20.418Z,52.55
2023-10-22T20:57:51.271Z,52.56
2023-10-22T21:00:22.441Z,52.40
2023-10-22T21:02:53.445Z,52.34
2023-10-22T21:05:24.208Z,52.34
2023-10-22T21:07:55.197Z,52.39
2023-10-22T21:10:26.060Z,52.32
2023-10-22T21:12:56.806Z,52.32
2023-10-22T21:15:27.720Z,52.42
2023-10-22T21:17:58.756Z,52.39
2023-10-22T21:20:29.755Z,52.39
2023-10-22T21:23:00.991Z,52.37
2023-10-22T21:25:31.893Z,52.46
2023-10-22T21:28:02.817Z,52.57
2023-10-22T21:30:33.808Z,52.43
2023-10-22T21:33:04.912Z,52.49
2023-10-22T21:35:35.880Z,52.59
2023-10-22T21:38:06.689Z,52.53
2023-10-22T21:40:37.629Z,52.51
2023-10-22T21:43:08.760Z,52.61
2023-10-22T21:45:39.881Z,52.65
2023-10-22T21:48:11.128Z,52.65
2023-10-22T21:50:43.632Z,52.63
2023-10-22T21:53:14.602Z,52.53
2023-10-22T21:55:54.183Z,52.54
2023-10-22T21:58:25.113Z,52.65
2023-10-22T22:00:57.138Z,52.73
2023-10-22T22:03:28.622Z,52.83
2023-10-22T22:05:59.693Z,52.83
2023-10-22T22:08:30.563Z,52.77
2023-10-22T22:11:01.946Z,52.78
2023-10-22T22:13:33.055Z,52.76
2023-10-22T22:16:04.044Z,52.67
2023-10-22T22:18:34.946Z,52.63
2023-10-22T22:21:05.896Z,52.47
2023-10-22T22:23:36.814Z,52.45
2023-10-22T22:26:07.736Z,52.61
2023-10-22T22:28:39.824Z,52.67
2023-10-22T22:31:11.163Z,52.37
2023-10-22T22:33:42.595Z,52.46
2023-10-22T22:36:14.272Z,52.46
2023-10-22T22:38:47.170Z,52.54
2023-10-22T22:41:18.351Z,52.39
2023-10-22T22:43:49.211Z,52.39
2023-10-22T22:46:20.331Z,52.35
2023-10-22T22:48:51.504Z,52.28
2023-10-22T22:51:22.833Z,52.34
2023-10-22T22:53:53.942Z,52.31
2023-10-22T22:56:25.083Z,52.28
2023-10-22T22:58:56.227Z,52.27
2023-10-22T23:01:27.759Z,52.30
2023-10-22T23:03:58.701Z,52.39
2023-10-22T23:06:29.769Z,52.41
2023-10-22T23:09:00.662Z,52.57
2023-10-22T23:11:32.771Z,52.44
2023-10-22T23:14:04.058Z,52.49
2023-10-22T23:16:35.481Z,52.36
2023-10-22T23:19:06.727Z,52.29
2023-10-22T23:21:38.366Z,52.32
2023-10-22T23:24:10.390Z,52.23
2023-10-22T23:26:41.297Z,52.42
2023-10-22T23:29:12.622Z,52.29
2023-10-22T23:31:43.715Z,52.17
2023-10-22T23:34:15.018Z,52.18
2023-10-22T23:36:46.069Z,52.16
2023-10-22T23:39:17.585Z,52.21
2023-10-22T23:41:49.369Z,52.27
2023-10-22T23:44:20.533Z,52.25
2023-10-22T23:46:51.413Z,52.19
2023-10-22T23:49:22.625Z,52.20
2023-10-22T23:51:53.653Z,52.18
2023-10-22T23:54:24.846Z,52.10
2023-10-22T23:56:56.083Z,52.02
2023-10-22T23:59:27.577Z,51.90
